Time,TemperatureF,DewpointF,PressureIn,WindDirection,WindDirectionDegrees,WindSpeedMPH,WindSpeedGustMPH,Humidity,HourlyPrecipIn,Conditions,Clouds,dailyrainin,SoftwareType,DateUTC
2013-12-07 00:02:00,23.0,20.0,30.42,NNW,342,0.0,0.0,88,0.00,,,0.27,,2013-12-07 06:02:00,
2013-12-07 06:43:00,19.0,16.0,30.42,NNW,342,0.0,0.0,86,0.00,,,0.27,,2013-12-07 12:43:00,
2013-12-07 06:52:00,19.0,16.0,30.43,NNW,341,0.0,0.0,86,0.00,,,0.27,,2013-12-07 12:52:00,
2013-12-07 07:11:00,19.0,16.0,30.42,NNW,342,0.0,0.0,86,0.00,,,0.25,,2013-12-07 13:11:00,
2013-12-07 07:22:00,19.0,16.0,30.42,NNW,342,0.0,0.0,86,0.00,,,0.25,,2013-12-07 13:22:00,
2013-12-07 07:42:00,19.0,16.0,30.44,NNW,342,0.0,0.0,86,0.00,,,0.23,,2013-12-07 13:42:00,
2013-12-07 07:52:00,19.0,16.0,30.44,NNW,342,0.0,0.0,86,0.00,,,0.22,,2013-12-07 13:52:00,
2013-12-07 08:22:00,19.0,16.0,30.44,NNW,342,0.0,0.0,86,0.00,,,0.18,,2013-12-07 14:22:00,
2013-12-07 08:42:00,19.0,16.0,30.43,NNW,342,0.0,0.0,86,0.00,,,0.13,,2013-12-07 14:42:00,
2013-12-07 08:52:00,19.0,16.0,30.44,NNW,342,0.0,0.0,86,0.00,,,0.09,,2013-12-07 14:52:00,
2013-12-07 09:21:00,20.0,17.0,30.44,NNW,342,0.0,0.0,87,0.00,,,0.03,,2013-12-07 15:21:00,
2013-12-07 09:43:00,20.0,17.0,30.43,NNW,342,0.0,0.0,87,0.00,,,0.00,,2013-12-07 15:43:00,
2013-12-07 09:54:00,20.0,17.0,30.44,NNW,341,0.0,0.0,87,0.00,,,0.00,,2013-12-07 15:54:00,
2013-12-07 10:13:00,20.0,16.0,30.27,NNW,342,0.0,0.0,86,0.00,,,0.00,,2013-12-07 16:13:00,
2013-12-07 10:23:00,20.0,16.0,30.44,NNW,342,0.0,0.0,86,0.00,,,0.00,,2013-12-07 16:23:00,
2013-12-07 10:43:00,21.0,18.0,30.42,NNW,342,0.0,0.0,87,0.00,,,0.00,,2013-12-07 16:43:00,
2013-12-07 10:53:00,21.0,18.0,30.44,NNW,341,0.0,0.0,87,0.00,,,0.00,,2013-12-07 16:53:00,
2013-12-07 11:12:00,21.0,17.0,30.43,NNW,341,0.0,0.0,86,0.00,,,0.00,,2013-12-07 17:12:00,
2013-12-07 11:22:00,21.0,17.0,30.43,NNW,342,0.0,0.0,86,0.00,,,0.00,,2013-12-07 17:22:00,
2013-12-07 11:43:00,22.0,19.0,30.42,NNW,342,0.0,0.0,87,0.00,,,0.00,,2013-12-07 17:43:00,
2013-12-07 11:52:00,22.0,19.0,30.41,NNW,342,0.0,0.0,87,0.00,,,0.00,,2013-12-07 17:52:00,
2013-12-07 12:12:00,22.0,19.0,30.41,NNW,342,0.0,0.0,87,0.00,,,0.00,,2013-12-07 18:12:00,
2013-12-07 12:22:00,22.0,19.0,30.40,NNW,342,0.0,0.0,87,0.00,,,0.00,,2013-12-07 18:22:00,
2013-12-07 12:43:00,22.0,19.0,30.39,NNW,342,0.0,0.0,87,0.00,,,0.00,,2013-12-07 18:43:00,
2013-12-07 12:52:00,22.0,19.0,30.38,NNW,342,0.0,0.0,87,0.00,,,0.00,,2013-12-07 18:52:00,
2013-12-07 13:11:00,22.0,19.0,30.36,NNW,342,0.0,0.0,87,0.00,,,0.00,,2013-12-07 19:11:00,
2013-12-07 13:22:00,22.0,19.0,30.35,NNW,342,0.0,0.0,88,0.00,,,0.00,,2013-12-07 19:22:00,
2013-12-07 13:42:00,22.0,19.0,30.33,NNW,342,0.0,0.0,88,0.00,,,0.00,,2013-12-07 19:42:00,
2013-12-07 13:52:00,22.0,19.0,30.32,NNW,342,0.0,0.0,88,0.00,,,0.00,,2013-12-07 19:52:00,
2013-12-07 14:11:00,23.0,20.0,30.32,NNW,342,0.0,0.0,88,0.00,,,0.00,,2013-12-07 20:11:00,
2013-12-07 14:22:00,23.0,20.0,29.88,NNW,342,0.0,0.0,88,0.00,,,0.00,,2013-12-07 20:22:00,
2013-12-07 14:42:00,23.0,20.0,30.31,NNW,342,0.0,0.0,88,0.00,,,0.00,,2013-12-07 20:42:00,
2013-12-07 14:52:00,23.0,20.0,29.95,NNW,342,0.0,0.0,89,0.00,,,0.00,,2013-12-07 20:52:00,
2013-12-07 15:11:00,23.0,20.0,30.29,NNW,342,0.0,0.0,89,0.00,,,0.00,,2013-12-07 21:11:00,
2013-12-07 15:22:00,23.0,20.0,30.27,NNW,342,0.0,0.0,89,0.00,,,0.00,,2013-12-07 21:22:00,
2013-12-07 15:43:00,23.0,20.0,29.85,NNW,342,0.0,0.0,89,0.00,,,0.00,,2013-12-07 21:43:00,
2013-12-07 15:53:00,23.0,20.0,30.19,NNW,342,0.0,0.0,89,0.00,,,0.00,,2013-12-07 21:53:00,
2013-12-07 16:23:00,23.0,20.0,30.27,NNW,342,0.0,0.0,89,0.00,,,0.00,,2013-12-07 22:23:00,
2013-12-07 16:42:00,23.0,20.0,30.27,NNW,342,0.0,0.0,89,0.00,,,0.00,,2013-12-07 22:42:00,
2013-12-07 16:53:00,23.0,20.0,30.17,NNW,342,0.0,0.0,89,0.00,,,0.00,,2013-12-07 22:53:00,
2013-12-07 17:22:00,23.0,20.0,30.26,NNW,342,0.0,0.0,89,0.00,,,0.00,,2013-12-07 23:22:00,
2013-12-07 17:42:00,23.0,20.0,30.25,NNW,342,0.0,0.0,89,0.00,,,0.00,,2013-12-07 23:42:00,
2013-12-07 17:52:00,23.0,20.0,30.25,NNW,342,0.0,0.0,89,0.00,,,0.00,,2013-12-07 23:52:00,
2013-12-07 18:11:00,24.0,21.0,30.26,NNW,342,0.0,0.0,89,0.00,,,0.00,,2013-12-08 00:11:00,
2013-12-07 18:22:00,24.0,22.0,30.25,NNW,342,0.0,0.0,90,0.00,,,0.00,,2013-12-08 00:22:00,
2013-12-07 18:42:00,24.0,22.0,30.00,NNW,342,0.0,0.0,90,0.00,,,0.00,,2013-12-08 00:42:00,
2013-12-07 18:52:00,24.0,22.0,30.26,NNW,342,0.0,0.0,90,0.00,,,0.00,,2013-12-08 00:52:00,
2013-12-07 19:12:00,24.0,22.0,30.26,NNW,342,0.0,0.0,90,0.00,,,0.00,,2013-12-08 01:12:00,
2013-12-07 19:22:00,24.0,22.0,30.27,NNW,342,0.0,0.0,90,0.00,,,0.00,,2013-12-08 01:22:00,
2013-12-07 19:42:00,24.0,22.0,29.83,NNW,342,0.0,0.0,91,0.00,,,0.00,,2013-12-08 01:42:00,
2013-12-07 19:52:00,24.0,22.0,30.26,NNW,342,0.0,0.0,91,0.00,,,0.00,,2013-12-08 01:52:00,
2013-12-07 20:22:00,24.0,22.0,30.25,NNW,342,0.0,0.0,91,0.00,,,0.00,,2013-12-08 02:22:00,
2013-12-07 20:43:00,25.0,23.0,29.97,NNW,342,0.0,0.0,91,0.00,,,0.00,,2013-12-08 02:43:00,
2013-12-07 20:52:00,25.0,23.0,29.99,NNW,341,0.0,0.0,91,0.00,,,0.00,,2013-12-08 02:52:00,
2013-12-07 21:22:00,25.0,23.0,30.04,NNW,342,0.0,0.0,91,0.00,,,0.00,,2013-12-08 03:22:00,
2013-12-07 21:54:00,25.0,23.0,30.11,NNW,342,0.0,0.0,91,0.00,,,0.00,,2013-12-08 03:54:00,
2013-12-07 22:02:00,-999.0,-99.9,29.95,NNW,342,0.0,0.0,-999,0.00,,,0.00,,2013-12-08 04:02:00,
2013-12-07 22:23:00,25.0,23.0,30.24,NNW,342,0.0,0.0,91,0.00,,,0.00,,2013-12-08 04:23:00,
2013-12-07 22:53:00,25.0,23.0,30.23,NNW,342,0.0,0.0,92,0.00,,,0.00,,2013-12-08 04:53:00,
2013-12-07 23:23:00,25.0,23.0,29.97,NNW,342,0.0,0.0,92,0.00,,,0.00,,2013-12-08 05:23:00,
2013-12-07 23:43:00,25.0,23.0,30.22,NNW,342,0.0,0.0,92,0.00,,,0.00,,2013-12-08 05:43:00,
2013-12-07 23:53:00,25.0,23.0,30.22,NNW,342,0.0,0.0,92,0.00,,,0.00,,2013-12-08 05:53:00,